Time;durP1;ratioP1;P1;durP2;ratioP2;P2;SDS_P1;SDS_P2;PMS_P1;PMS_P2;Temp;Humidity;BMP_temperature;BMP_pressure;BME280_temperature;BME280_humidity;BME280_pressure;Samples;Min_cycle;Max_cycle;Signal;HPM_P1;HPM_P2
2021/08/28 00:00:50;;;;;;;3.78;3.58;;;18.10;57.70;;;;;;5052330;28;20029;-83
2021/08/28 00:03:20;;;;;;;3.58;3.40;;;18.10;57.80;;;;;;5058727;28;20029;-82
2021/08/28 00:05:46;;;;;;;4.07;3.75;;;18.10;57.80;;;;;;5058008;28;20037;-83
2021/08/28 00:08:12;;;;;;;3.80;3.60;;;18.10;57.90;;;;;;5058359;28;20025;-82
2021/08/28 00:10:38;;;;;;;3.70;3.50;;;18.00;57.80;;;;;;5041899;28;20056;-83
2021/08/28 00:13:05;;;;;;;3.63;3.42;;;18.00;57.90;;;;;;5056308;28;20028;-82
2021/08/28 00:15:31;;;;;;;3.40;3.30;;;18.00;57.90;;;;;;5054736;28;20402;-82
2021/08/28 00:17:57;;;;;;;3.70;3.50;;;18.00;57.90;;;;;;5059113;28;20025;-84
2021/08/28 00:20:23;;;;;;;3.30;3.20;;;18.00;58.10;;;;;;5056879;28;20032;-84
2021/08/28 00:22:49;;;;;;;3.40;3.30;;;17.90;58.10;;;;;;5056793;28;20397;-83
2021/08/28 00:25:15;;;;;;;3.20;3.10;;;17.90;58.90;;;;;;5056366;28;20024;-83
2021/08/28 00:27:42;;;;;;;3.53;3.33;;;17.80;58.40;;;;;;5068301;28;20029;-83
2021/08/28 00:30:09;;;;;;;3.28;3.17;;;17.80;58.50;;;;;;5059278;28;20063;-82
2021/08/28 00:32:35;;;;;;;3.20;3.10;;;17.80;58.50;;;;;;5057756;28;20017;-85
2021/08/28 00:35:01;;;;;;;3.55;3.22;;;17.80;58.60;;;;;;5056541;28;20041;-85
2021/08/28 00:37:27;;;;;;;3.58;3.38;;;17.70;58.60;;;;;;5056679;28;20025;-81
2021/08/28 00:39:53;;;;;;;3.17;3.00;;;17.80;58.60;;;;;;5052013;28;20394;-83
2021/08/28 00:42:19;;;;;;;3.30;3.20;;;17.70;58.70;;;;;;5055150;28;20036;-81
2021/08/28 00:44:45;;;;;;;2.95;2.85;;;17.70;58.80;;;;;;5057153;28;20401;-83
2021/08/28 00:47:15;;;;;;;4.82;3.50;;;17.70;58.80;;;;;;5056202;28;20210;-83
2021/08/28 00:49:42;;;;;;;3.70;3.50;;;17.70;58.80;;;;;;5055037;28;20048;-83
2021/08/28 00:52:08;;;;;;;4.38;3.30;;;17.70;58.80;;;;;;5053746;28;20021;-83
2021/08/28 00:54:34;;;;;;;3.50;3.28;;;17.70;58.80;;;;;;5052909;28;20061;-83
2021/08/28 00:57:01;;;;;;;3.10;3.00;;;17.70;58.80;;;;;;5058022;28;20029;-82
2021/08/28 00:59:27;;;;;;;3.28;3.13;;;17.70;58.80;;;;;;5038684;28;20032;-83
2021/08/28 01:01:53;;;;;;;3.42;3.30;;;17.70;58.80;;;;;;5055746;28;20213;-83
2021/08/28 01:04:20;;;;;;;3.45;3.28;;;17.60;58.90;;;;;;5036877;28;20059;-83
2021/08/28 01:06:57;;;;;;;3.40;3.20;;;17.70;59.00;;;;;;5050664;28;20041;-83
2021/08/28 01:09:34;;;;;;;3.05;2.95;;;17.60;59.10;;;;;;5053531;28;20401;-82
2021/08/28 01:12:13;;;;;;;3.17;3.08;;;17.50;59.00;;;;;;5071617;28;20040;-86
2021/08/28 01:14:44;;;;;;;3.28;3.17;;;17.50;59.20;;;;;;5053657;28;20053;-85
2021/08/28 01:17:11;;;;;;;3.30;3.20;;;17.40;59.30;;;;;;5038284;28;20040;-83
2021/08/28 01:19:37;;;;;;;3.00;2.90;;;17.40;59.50;;;;;;5036845;28;20033;-83
2021/08/28 01:22:15;;;;;;;3.53;3.33;;;17.40;59.40;;;;;;5054093;28;20029;-83
2021/08/28 01:24:42;;;;;;;13.90;3.67;;;17.30;59.40;;;;;;5034970;28;20402;-82
2021/08/28 01:27:15;;;;;;;3.50;3.30;;;17.30;59.50;;;;;;5040341;28;20029;-83
2021/08/28 01:29:42;;;;;;;3.13;3.03;;;17.30;59.60;;;;;;5054062;28;20047;-82
2021/08/28 01:32:08;;;;;;;3.20;3.10;;;17.30;59.70;;;;;;5037835;28;20398;-82
2021/08/28 01:34:34;;;;;;;3.50;3.30;;;17.20;59.80;;;;;;5011757;28;1240995;-82
2021/08/28 01:37:01;;;;;;;3.17;3.08;;;17.20;59.80;;;;;;5053405;28;20040;-83
2021/08/28 01:39:27;;;;;;;2.97;2.88;;;17.20;59.80;;;;;;5052781;28;20044;-83
2021/08/28 01:41:59;;;;;;;3.22;3.13;;;17.20;59.80;;;;;;5073821;28;20036;-83
2021/08/28 01:44:25;;;;;;;2.95;2.85;;;17.20;59.80;;;;;;5053732;28;20017;-83
2021/08/28 01:46:51;;;;;;;3.40;3.20;;;17.20;59.80;;;;;;5054922;28;20037;-83
2021/08/28 01:49:17;;;;;;;3.25;3.08;;;17.20;59.80;;;;;;5056452;28;20029;-83
2021/08/28 01:51:44;;;;;;;2.90;2.80;;;17.20;59.80;;;;;;5034569;28;20049;-83
2021/08/28 01:54:10;;;;;;;3.22;3.13;;;17.20;59.80;;;;;;5063780;28;20397;-83
2021/08/28 01:56:36;;;;;;;3.13;2.97;;;17.10;59.90;;;;;;5056546;28;20033;-84
2021/08/28 01:59:02;;;;;;;3.10;3.00;;;17.10;59.90;;;;;;5037044;28;20024;-81
2021/08/28 02:01:28;;;;;;;3.05;2.85;;;17.10;59.90;;;;;;5044698;28;20033;-82
2021/08/28 02:03:55;;;;;;;2.80;2.70;;;17.10;60.00;;;;;;5041002;28;20037;-82
2021/08/28 02:06:36;;;;;;;3.03;2.92;;;17.10;60.00;;;;;;5049001;28;20039;-81
2021/08/28 02:09:12;;;;;;;3.00;2.90;;;17.10;60.00;;;;;;5042173;28;20367;-83
2021/08/28 02:11:45;;;;;;;3.17;3.08;;;17.10;59.90;;;;;;5042667;28;20493;-81
2021/08/28 02:14:15;;;;;;;3.20;3.10;;;17.10;59.90;;;;;;5044666;28;20025;-84
2021/08/28 02:16:42;;;;;;;2.90;2.80;;;17.10;59.90;;;;;;5042958;28;20040;-82
2021/08/28 02:19:17;;;;;;;3.08;2.97;;;17.10;59.90;;;;;;5034494;28;20036;-82
2021/08/28 02:21:46;;;;;;;3.00;2.90;;;17.10;60.00;;;;;;5033255;28;20017;-83
2021/08/28 02:24:15;;;;;;;3.53;3.33;;;17.10;60.00;;;;;;5059611;28;20033;-84
2021/08/28 02:27:01;;;;;;;3.05;2.95;;;17.10;60.00;;;;;;5037242;28;20136;-81
2021/08/28 02:29:34;;;;;;;4.82;3.38;;;17.00;60.00;;;;;;5035175;28;20037;-83
2021/08/28 02:32:00;;;;;;;2.80;2.70;;;17.00;60.00;;;;;;5034669;28;20033;-83
2021/08/28 02:34:28;;;;;;;3.20;3.05;;;17.00;60.10;;;;;;5035256;28;20489;-85
2021/08/28 02:36:55;;;;;;;3.33;3.10;;;17.00;60.10;;;;;;5042215;28;20034;-83
2021/08/28 02:39:21;;;;;;;3.67;3.38;;;17.00;60.20;;;;;;5020866;28;20047;-82
2021/08/28 02:41:47;;;;;;;3.00;2.90;;;16.90;60.10;;;;;;5088860;28;20032;-83
2021/08/28 02:44:13;;;;;;;2.92;2.83;;;16.90;60.20;;;;;;5054033;28;20473;-83
2021/08/28 02:46:40;;;;;;;2.83;2.72;;;16.90;60.30;;;;;;5054949;28;20041;-83
2021/08/28 02:49:06;;;;;;;2.63;2.53;;;16.90;60.40;;;;;;5036141;28;20032;-83
2021/08/28 02:51:33;;;;;;;2.80;2.70;;;16.90;60.40;;;;;;5050696;28;20039;-83
2021/08/28 02:54:00;;;;;;;2.90;2.80;;;16.80;60.40;;;;;;5056170;28;20454;-83
2021/08/28 02:56:26;;;;;;;2.85;2.65;;;16.80;60.40;;;;;;5037365;28;20052;-84
2021/08/28 02:58:52;;;;;;;3.33;3.13;;;16.80;60.50;;;;;;5054020;28;20024;-84
2021/08/28 03:01:18;;;;;;;2.90;2.80;;;16.80;60.50;;;;;;5051991;28;20033;-83
2021/08/28 03:03:44;;;;;;;2.75;2.65;;;16.80;60.60;;;;;;5049473;28;20044;-83
2021/08/28 03:06:11;;;;;;;2.90;2.80;;;16.80;60.60;;;;;;5062572;28;20579;-83
2021/08/28 03:08:37;;;;;;;2.72;2.63;;;16.70;60.60;;;;;;5037508;28;20040;-83
2021/08/28 03:11:03;;;;;;;3.05;2.85;;;16.70;60.70;;;;;;5053562;28;20041;-82
2021/08/28 03:13:29;;;;;;;2.67;2.58;;;16.70;60.70;;;;;;5038900;28;20040;-83
2021/08/28 03:15:55;;;;;;;2.80;2.70;;;16.70;60.80;;;;;;5033676;28;20040;-83
2021/08/28 03:18:23;;;;;;;2.85;2.75;;;16.70;61.00;;;;;;5036831;28;20029;-83
2021/08/28 03:20:51;;;;;;;2.97;2.88;;;16.60;61.00;;;;;;5087784;28;20055;-83
2021/08/28 03:23:19;;;;;;;2.72;2.63;;;16.60;61.10;;;;;;5037204;28;20033;-83
2021/08/28 03:25:45;;;;;;;3.20;3.00;;;16.60;61.20;;;;;;5037034;28;20037;-83
2021/08/28 03:28:12;;;;;;;2.70;2.60;;;16.60;61.20;;;;;;5052911;28;20055;-83
2021/08/28 03:30:40;;;;;;;2.65;2.55;;;16.60;61.10;;;;;;5032682;28;20405;-83
2021/08/28 03:33:06;;;;;;;2.85;2.75;;;16.50;61.10;;;;;;5055429;28;20041;-83
2021/08/28 03:35:32;;;;;;;2.88;2.78;;;16.50;61.10;;;;;;5053310;28;20410;-83
2021/08/28 03:37:58;;;;;;;2.65;2.55;;;16.50;61.10;;;;;;5053573;28;20040;-83
2021/08/28 03:40:25;;;;;;;2.85;2.75;;;16.50;61.10;;;;;;5035326;28;20458;-84
2021/08/28 03:42:51;;;;;;;2.92;2.83;;;16.50;61.10;;;;;;5051332;28;20029;-83
2021/08/28 03:45:17;;;;;;;2.80;2.70;;;16.50;61.20;;;;;;5052856;28;20397;-83
2021/08/28 03:47:44;;;;;;;3.60;3.15;;;16.50;61.20;;;;;;5055212;28;20037;-83
2021/08/28 03:50:10;;;;;;;3.35;3.05;;;16.50;61.30;;;;;;5054218;28;20044;-82
2021/08/28 03:52:36;;;;;;;2.90;2.80;;;16.40;61.30;;;;;;5053212;28;20240;-83
2021/08/28 03:55:03;;;;;;;2.70;2.60;;;16.40;61.40;;;;;;5051622;28;20477;-84
2021/08/28 03:57:29;;;;;;;2.75;2.65;;;16.40;61.40;;;;;;5051919;28;20033;-84
2021/08/28 03:59:55;;;;;;;2.72;2.63;;;16.40;61.50;;;;;;5056421;28;20025;-83
2021/08/28 04:02:21;;;;;;;2.83;2.72;;;16.30;61.40;;;;;;5052885;28;20056;-84
2021/08/28 04:04:47;;;;;;;2.85;2.75;;;16.40;61.60;;;;;;5052988;28;20041;-83
2021/08/28 04:07:13;;;;;;;3.17;2.97;;;16.40;61.60;;;;;;5052892;28;20393;-84
2021/08/28 04:09:39;;;;;;;2.90;2.80;;;16.30;61.60;;;;;;5050207;28;20033;-83
2021/08/28 04:12:05;;;;;;;2.72;2.63;;;16.30;61.60;;;;;;5055211;28;20466;-82
2021/08/28 04:14:31;;;;;;;2.70;2.60;;;16.30;61.70;;;;;;5053210;28;20359;-83
2021/08/28 04:16:57;;;;;;;3.20;2.97;;;16.30;61.70;;;;;;5053934;28;20104;-83
2021/08/28 04:19:23;;;;;;;2.83;2.72;;;16.20;61.80;;;;;;5052490;28;20047;-83
2021/08/28 04:21:50;;;;;;;2.83;2.72;;;16.20;61.90;;;;;;5049418;28;20021;-83
2021/08/28 04:24:16;;;;;;;2.50;2.40;;;16.20;62.10;;;;;;5054934;28;20041;-82
2021/08/28 04:26:42;;;;;;;2.70;2.60;;;16.10;62.20;;;;;;5055635;28;20458;-83
2021/08/28 04:29:08;;;;;;;3.05;2.92;;;16.10;62.20;;;;;;5056727;28;20025;-83
2021/08/28 04:31:34;;;;;;;2.60;2.50;;;16.00;62.30;;;;;;5054614;28;20049;-82
2021/08/28 04:34:00;;;;;;;2.70;2.60;;;16.00;62.30;;;;;;5053976;28;20041;-83
2021/08/28 04:36:26;;;;;;;2.83;2.72;;;16.00;62.40;;;;;;5055980;28;20025;-81
2021/08/28 04:38:52;;;;;;;2.97;2.88;;;15.90;62.40;;;;;;5059486;28;20029;-83
2021/08/28 04:41:18;;;;;;;2.80;2.70;;;15.90;62.50;;;;;;5057691;28;20033;-83
2021/08/28 04:43:44;;;;;;;3.00;2.80;;;15.90;62.60;;;;;;5056404;28;20021;-83
2021/08/28 04:46:10;;;;;;;2.70;2.60;;;15.80;62.70;;;;;;5056469;28;20028;-83
2021/08/28 04:48:37;;;;;;;2.40;2.30;;;15.80;62.80;;;;;;5053665;28;20406;-85
2021/08/28 04:51:03;;;;;;;2.97;2.78;;;15.80;62.90;;;;;;5058322;28;20033;-85
2021/08/28 04:53:29;;;;;;;2.80;2.70;;;15.70;62.90;;;;;;5057484;28;20055;-83
2021/08/28 04:55:55;;;;;;;3.83;2.85;;;15.70;63.00;;;;;;5039968;28;20486;-83
2021/08/28 04:58:21;;;;;;;2.70;2.60;;;15.70;63.00;;;;;;5055893;28;20024;-83
2021/08/28 05:00:47;;;;;;;2.80;2.60;;;15.70;62.90;;;;;;5052910;28;20390;-83
2021/08/28 05:03:13;;;;;;;2.80;2.70;;;15.70;62.90;;;;;;5058433;28;20025;-82
2021/08/28 05:05:39;;;;;;;3.95;2.90;;;15.70;63.10;;;;;;5041573;28;20144;-82
2021/08/28 05:08:05;;;;;;;2.88;2.67;;;15.70;63.00;;;;;;5057194;28;20025;-83
2021/08/28 05:10:31;;;;;;;2.60;2.50;;;15.70;63.10;;;;;;5055634;28;20039;-83
2021/08/28 05:12:58;;;;;;;2.75;2.65;;;15.70;63.20;;;;;;5053611;28;20037;-83
2021/08/28 05:15:24;;;;;;;3.50;2.67;;;15.70;63.20;;;;;;5055416;28;20025;-83
2021/08/28 05:17:50;;;;;;;2.90;2.53;;;15.70;63.20;;;;;;5057991;28;20025;-84
2021/08/28 05:20:16;;;;;;;3.05;2.78;;;15.70;63.20;;;;;;5056937;28;20476;-83
2021/08/28 05:22:42;;;;;;;2.67;2.58;;;15.70;63.10;;;;;;5055893;28;20039;-83
2021/08/28 05:25:08;;;;;;;12.40;3.20;;;15.70;63.20;;;;;;5056000;28;20028;-83
2021/08/28 05:27:34;;;;;;;3.42;3.00;;;15.70;63.20;;;;;;5053627;28;20048;-83
2021/08/28 05:30:00;;;;;;;3.20;3.00;;;15.70;63.20;;;;;;5058509;28;20037;-83
2021/08/28 05:32:27;;;;;;;2.95;2.80;;;15.70;63.20;;;;;;5055942;28;20397;-83
2021/08/28 05:34:54;;;;;;;2.60;2.50;;;15.70;63.40;;;;;;5055399;28;20051;-83
2021/08/28 05:37:21;;;;;;;2.63;2.53;;;15.60;63.50;;;;;;5054991;28;20021;-83
2021/08/28 05:39:47;;;;;;;2.60;2.50;;;15.60;63.60;;;;;;5051681;28;20037;-83
2021/08/28 05:42:13;;;;;;;2.42;2.33;;;15.60;63.60;;;;;;5058084;28;20363;-82
2021/08/28 05:44:39;;;;;;;4.03;2.88;;;15.60;63.60;;;;;;5053655;28;20049;-83
2021/08/28 05:47:05;;;;;;;2.78;2.67;;;15.60;63.70;;;;;;5055958;28;20498;-82
2021/08/28 05:49:32;;;;;;;4.72;2.63;;;15.60;63.80;;;;;;5054907;28;20047;-79
2021/08/28 05:51:58;;;;;;;2.80;2.58;;;15.60;63.90;;;;;;5052571;28;20052;-84
2021/08/28 05:54:24;;;;;;;2.65;2.55;;;15.60;63.90;;;;;;5055365;28;20029;-83
2021/08/28 05:56:50;;;;;;;2.63;2.53;;;15.60;63.90;;;;;;5090067;28;20367;-83
2021/08/28 05:59:16;;;;;;;2.60;2.50;;;15.60;64.00;;;;;;5055832;28;20033;-83
2021/08/28 06:01:42;;;;;;;2.67;2.58;;;15.60;63.90;;;;;;5055798;28;20418;-81
2021/08/28 06:04:08;;;;;;;2.70;2.60;;;15.60;63.80;;;;;;5055156;28;20036;-83
2021/08/28 06:06:35;;;;;;;10.20;3.17;;;15.70;63.80;;;;;;5052744;28;20466;-83
2021/08/28 06:09:01;;;;;;;3.03;2.92;;;15.70;63.80;;;;;;5058030;28;20021;-83
2021/08/28 06:11:27;;;;;;;2.95;2.83;;;15.80;63.70;;;;;;5055826;28;20044;-83
2021/08/28 06:13:53;;;;;;;2.92;2.83;;;16.00;63.50;;;;;;5054422;28;20028;-83
2021/08/28 06:16:19;;;;;;;2.90;2.80;;;16.10;63.30;;;;;;5052749;28;20028;-83
2021/08/28 06:18:45;;;;;;;2.60;2.50;;;16.20;63.20;;;;;;5050406;28;20036;-84
2021/08/28 06:21:11;;;;;;;3.60;3.40;;;16.40;63.00;;;;;;5056501;28;20039;-83
2021/08/28 06:23:37;;;;;;;3.05;2.95;;;16.50;62.70;;;;;;5055598;28;20037;-84
2021/08/28 06:26:03;;;;;;;3.00;2.90;;;16.80;62.40;;;;;;5055803;28;20496;-84
2021/08/28 06:28:29;;;;;;;3.42;3.33;;;16.90;62.10;;;;;;5054017;28;20028;-83
2021/08/28 06:30:56;;;;;;;3.40;3.30;;;17.10;62.00;;;;;;5052275;28;20037;-83
2021/08/28 06:33:22;;;;;;;3.67;3.47;;;17.20;61.80;;;;;;5053820;28;20056;-84
2021/08/28 06:35:48;;;;;;;4.10;3.90;;;17.30;61.80;;;;;;5056510;28;20048;-83
2021/08/28 06:38:14;;;;;;;3.88;3.67;;;17.30;61.90;;;;;;5054365;28;20036;-83
2021/08/28 06:40:40;;;;;;;3.85;3.65;;;17.40;61.80;;;;;;5054237;28;20040;-83
2021/08/28 06:43:06;;;;;;;3.35;3.20;;;17.50;61.70;;;;;;5053590;28;20029;-83
2021/08/28 06:45:32;;;;;;;3.47;3.30;;;17.60;61.70;;;;;;5034300;28;20401;-83
2021/08/28 06:47:58;;;;;;;2.90;2.80;;;17.70;61.50;;;;;;5057347;28;20056;-83
2021/08/28 06:50:24;;;;;;;3.17;3.08;;;17.80;61.50;;;;;;5053732;28;20045;-83
2021/08/28 06:52:50;;;;;;;2.83;2.72;;;17.80;61.30;;;;;;5054203;28;20028;-85
2021/08/28 06:55:16;;;;;;;6.47;3.65;;;17.90;61.30;;;;;;5053682;28;20488;-83
2021/08/28 06:57:43;;;;;;;3.33;3.22;;;18.00;61.10;;;;;;5033377;28;20029;-83
2021/08/28 07:00:09;;;;;;;3.20;3.10;;;18.20;61.00;;;;;;5055433;28;20031;-84
2021/08/28 07:02:38;;;;;;;3.95;3.75;;;18.20;60.90;;;;;;5055003;28;20068;-83
2021/08/28 07:05:05;;;;;;;3.88;3.67;;;18.30;60.80;;;;;;5053886;28;20029;-82
2021/08/28 07:07:31;;;;;;;4.38;4.03;;;18.30;60.80;;;;;;5053693;28;20028;-83
2021/08/28 07:09:57;;;;;;;4.10;3.90;;;18.40;60.70;;;;;;5052812;28;20403;-83
2021/08/28 07:12:23;;;;;;;4.35;4.13;;;18.50;60.60;;;;;;5053775;28;20029;-83
2021/08/28 07:14:49;;;;;;;4.75;4.55;;;18.70;60.30;;;;;;5088538;28;20476;-83
2021/08/28 07:17:15;;;;;;;5.03;4.82;;;18.80;60.10;;;;;;5053093;28;20040;-83
2021/08/28 07:19:41;;;;;;;4.40;4.20;;;18.90;60.00;;;;;;5053581;28;20033;-83
2021/08/28 07:22:07;;;;;;;5.30;5.10;;;18.90;60.00;;;;;;5053732;28;20021;-83
2021/08/28 07:24:33;;;;;;;5.50;5.30;;;18.90;60.20;;;;;;5051585;28;20031;-84
2021/08/28 07:26:59;;;;;;;5.55;5.20;;;18.90;60.10;;;;;;5056421;28;20041;-84
2021/08/28 07:29:26;;;;;;;5.22;5.03;;;19.00;60.10;;;;;;5053474;28;20040;-84
2021/08/28 07:31:52;;;;;;;5.60;5.30;;;19.20;59.90;;;;;;5054264;28;20037;-84
2021/08/28 07:34:18;;;;;;;5.93;5.63;;;19.20;59.70;;;;;;5053118;28;20055;-84
2021/08/28 07:36:44;;;;;;;4.72;4.53;;;19.30;59.70;;;;;;5050580;28;20029;-84
2021/08/28 07:39:10;;;;;;;4.18;3.97;;;19.40;59.60;;;;;;5055230;28;20401;-82
2021/08/28 07:41:36;;;;;;;4.20;4.00;;;19.50;59.50;;;;;;5052967;28;20041;-84
2021/08/28 07:44:02;;;;;;;6.13;5.82;;;19.50;59.60;;;;;;5054687;28;20036;-83
2021/08/28 07:46:28;;;;;;;3.33;3.22;;;19.60;59.50;;;;;;5051481;28;20032;-83
2021/08/28 07:48:54;;;;;;;4.35;4.15;;;19.70;59.40;;;;;;5051583;28;20517;-82
2021/08/28 07:51:20;;;;;;;4.07;3.88;;;19.80;59.20;;;;;;5053248;28;20048;-83
2021/08/28 07:53:46;;;;;;;4.03;3.83;;;19.90;59.00;;;;;;5055150;28;20384;-83
2021/08/28 07:56:12;;;;;;;4.60;4.40;;;20.00;59.00;;;;;;5054201;28;20039;-84
2021/08/28 07:58:39;;;;;;;4.97;4.78;;;20.00;58.90;;;;;;5054477;28;20421;-84
2021/08/28 08:01:05;;;;;;;5.60;5.30;;;20.10;58.90;;;;;;5034432;28;20040;-83
2021/08/28 08:03:31;;;;;;;6.38;6.07;;;20.10;58.70;;;;;;5055475;28;20386;-83
2021/08/28 08:05:57;;;;;;;7.57;7.28;;;20.10;58.70;;;;;;5060337;28;20029;-84
2021/08/28 08:08:23;;;;;;;8.02;7.63;;;20.20;58.60;;;;;;5040644;28;20031;-85
2021/08/28 08:10:49;;;;;;;9.40;8.38;;;20.30;58.50;;;;;;5057755;28;20401;-83
2021/08/28 08:13:15;;;;;;;7.72;7.32;;;20.40;58.30;;;;;;5056368;28;20032;-84
2021/08/28 08:15:41;;;;;;;6.90;6.47;;;20.60;58.10;;;;;;5053719;28;20482;-83
2021/08/28 08:18:07;;;;;;;8.68;8.27;;;20.60;58.00;;;;;;5060354;28;20028;-84
2021/08/28 08:20:33;;;;;;;5.32;5.10;;;20.70;57.90;;;;;;5058053;28;20037;-84
2021/08/28 08:23:00;;;;;;;5.25;5.05;;;20.90;57.70;;;;;;5058222;28;20525;-83
2021/08/28 08:25:27;;;;;;;4.78;4.57;;;21.10;57.40;;;;;;5056295;28;20035;-85
2021/08/28 08:27:53;;;;;;;4.88;4.68;;;21.20;57.20;;;;;;5054792;28;20060;-84
2021/08/28 08:30:19;;;;;;;4.97;4.78;;;21.20;57.20;;;;;;5056355;28;20017;-84
2021/08/28 08:32:45;;;;;;;5.25;4.95;;;21.20;57.20;;;;;;5057560;28;20425;-84
2021/08/28 08:35:11;;;;;;;5.75;5.45;;;21.20;57.20;;;;;;5057897;28;20044;-84
2021/08/28 08:37:37;;;;;;;6.55;6.25;;;21.40;57.00;;;;;;5056603;28;20037;-84
2021/08/28 08:40:04;;;;;;;7.03;6.72;;;21.50;56.70;;;;;;5054450;28;20031;-83
2021/08/28 08:42:30;;;;;;;6.97;6.68;;;21.60;56.50;;;;;;5071317;28;20028;-85
2021/08/28 08:44:56;;;;;;;6.53;6.22;;;21.60;56.50;;;;;;5058461;28;20056;-84
2021/08/28 08:47:24;;;;;;;6.25;5.95;;;21.70;56.30;;;;;;5040174;28;20052;-83
2021/08/28 08:49:52;;;;;;;6.10;5.80;;;21.80;56.20;;;;;;5058135;28;20032;-84
2021/08/28 08:52:19;;;;;;;7.93;7.43;;;21.80;56.10;;;;;;5039959;28;20039;-86
2021/08/28 08:54:46;;;;;;;7.10;6.80;;;21.80;55.90;;;;;;5051725;28;20045;-84
2021/08/28 08:57:12;;;;;;;7.18;6.88;;;21.90;56.00;;;;;;5066692;28;20389;-84
2021/08/28 08:59:38;;;;;;;6.93;6.63;;;22.00;55.90;;;;;;5055046;28;20036;-84
2021/08/28 09:02:04;;;;;;;6.93;6.63;;;22.20;55.70;;;;;;5055705;28;20478;-85
2021/08/28 09:04:30;;;;;;;8.10;7.70;;;22.40;55.30;;;;;;5054911;28;20029;-83
2021/08/28 09:06:56;;;;;;;7.05;6.75;;;22.60;54.90;;;;;;5052974;28;20374;-84
2021/08/28 09:09:23;;;;;;;8.07;7.53;;;22.50;54.70;;;;;;5038406;28;20037;-85
2021/08/28 09:12:00;;;;;;;7.10;6.70;;;22.40;54.70;;;;;;5056745;28;20033;-84
2021/08/28 09:14:26;;;;;;;6.35;6.05;;;22.50;54.80;;;;;;5055833;28;20032;-84
2021/08/28 09:16:52;;;;;;;6.40;6.10;;;22.60;54.60;;;;;;5056891;28;20037;-84
2021/08/28 09:19:19;;;;;;;6.05;5.75;;;22.60;54.40;;;;;;5055753;28;20028;-85
2021/08/28 09:21:45;;;;;;;6.45;6.15;;;22.70;54.30;;;;;;5051465;28;20040;-84
2021/08/28 09:24:12;;;;;;;6.30;6.00;;;22.80;54.20;;;;;;5065545;28;20017;-84
2021/08/28 09:26:44;;;;;;;6.70;6.30;;;23.00;54.00;;;;;;5039483;28;20497;-84
2021/08/28 09:29:14;;;;;;;7.13;6.82;;;23.20;53.60;;;;;;5039429;28;20405;-84
2021/08/28 09:31:50;;;;;;;7.28;6.97;;;23.20;53.20;;;;;;5037041;28;20037;-84
2021/08/28 09:34:16;;;;;;;7.38;7.07;;;23.20;53.00;;;;;;5054868;28;20497;-85
2021/08/28 09:36:42;;;;;;;7.60;6.88;;;23.20;52.90;;;;;;5051013;28;20566;-84
2021/08/28 09:39:09;;;;;;;6.18;5.88;;;23.20;52.60;;;;;;5057317;28;20036;-84
2021/08/28 09:41:36;;;;;;;9.43;6.75;;;23.30;52.50;;;;;;5040246;28;20486;-84
2021/08/28 09:44:08;;;;;;;6.93;6.63;;;23.40;52.40;;;;;;5057474;28;20421;-84
2021/08/28 09:46:34;;;;;;;6.57;6.28;;;23.50;52.10;;;;;;5056026;28;20482;-85
2021/08/28 09:49:01;;;;;;;6.63;6.32;;;23.60;51.60;;;;;;5054171;28;20029;-83
2021/08/28 09:51:37;;;;;;;6.45;6.15;;;23.60;51.60;;;;;;5054045;28;20045;-84
2021/08/28 09:54:03;;;;;;;6.30;6.00;;;23.80;51.50;;;;;;5089510;28;20025;-85
2021/08/28 09:56:29;;;;;;;6.53;6.22;;;23.90;50.90;;;;;;5055043;28;20029;-84
2021/08/28 09:58:56;;;;;;;6.57;6.28;;;23.90;50.50;;;;;;5055058;28;20044;-85
2021/08/28 10:01:22;;;;;;;6.50;6.20;;;23.90;50.40;;;;;;5054703;28;20028;-84
2021/08/28 10:03:58;;;;;;;6.00;5.70;;;23.90;50.30;;;;;;5034255;28;20022;-84
2021/08/28 10:06:25;;;;;;;6.28;5.97;;;23.90;50.20;;;;;;5054777;28;20037;-85
2021/08/28 10:08:51;;;;;;;5.97;5.68;;;23.90;50.00;;;;;;5089810;28;20029;-84
2021/08/28 10:11:18;;;;;;;6.38;6.07;;;24.00;49.90;;;;;;5053308;28;20504;-86
2021/08/28 10:13:45;;;;;;;5.82;5.53;;;24.10;49.60;;;;;;5021813;28;20126;-85
2021/08/28 10:16:11;;;;;;;6.00;5.70;;;24.10;49.40;;;;;;5053439;28;20029;-85
2021/08/28 10:18:38;;;;;;;7.05;6.75;;;24.20;49.50;;;;;;5052367;28;20021;-84
2021/08/28 10:21:05;;;;;;;6.20;5.90;;;24.20;49.30;;;;;;5056445;28;20033;-85
2021/08/28 10:23:31;;;;;;;6.00;5.70;;;24.20;49.10;;;;;;5036776;28;20029;-84
2021/08/28 10:25:57;;;;;;;7.25;6.78;;;24.10;49.20;;;;;;5054055;28;20025;-85
2021/08/28 10:28:23;;;;;;;6.05;5.75;;;24.10;49.20;;;;;;5036675;28;20032;-85
2021/08/28 10:30:49;;;;;;;7.38;7.07;;;24.20;49.00;;;;;;5051524;28;20044;-84
2021/08/28 10:33:16;;;;;;;6.03;5.72;;;24.30;48.90;;;;;;5056661;28;20045;-84
2021/08/28 10:35:42;;;;;;;6.15;5.85;;;24.40;48.70;;;;;;5053159;28;20033;-83
2021/08/28 10:38:08;;;;;;;5.90;5.60;;;24.40;48.40;;;;;;5037844;28;20466;-85
2021/08/28 10:40:34;;;;;;;6.35;6.05;;;24.40;48.20;;;;;;5054290;28;20040;-82
2021/08/28 10:43:03;;;;;;;5.85;5.55;;;24.40;48.30;;;;;;5035677;28;20017;-84
2021/08/28 10:45:33;;;;;;;5.68;5.40;;;24.50;48.00;;;;;;5052861;28;20482;-82
2021/08/28 10:48:04;;;;;;;9.00;8.60;;;24.50;47.70;;;;;;5054630;28;20029;-83
2021/08/28 10:50:37;;;;;;;5.10;4.90;;;24.50;47.60;;;;;;5053466;28;20021;-84
2021/08/28 10:53:03;;;;;;;5.50;5.30;;;24.50;47.50;;;;;;5037990;28;20044;-85
2021/08/28 10:55:40;;;;;;;5.32;5.13;;;24.50;47.50;;;;;;5055168;28;20461;-84
2021/08/28 10:58:13;;;;;;;5.65;5.38;;;24.70;47.20;;;;;;5053623;28;20544;-83
2021/08/28 11:00:43;;;;;;;5.45;5.25;;;24.70;46.80;;;;;;5050272;28;20033;-84
2021/08/28 11:03:34;;;;;;;5.43;5.13;;;24.60;46.80;;;;;;5072876;28;20037;-84
2021/08/28 11:06:16;;;;;;;5.38;5.18;;;24.60;46.90;;;;;;5051569;28;20049;-84
2021/08/28 11:08:51;;;;;;;5.80;5.50;;;24.60;46.90;;;;;;5055445;28;20040;-84
2021/08/28 11:11:26;;;;;;;5.80;5.50;;;24.70;46.80;;;;;;5053779;28;20033;-83
2021/08/28 11:14:05;;;;;;;6.28;5.97;;;24.90;46.50;;;;;;5055026;28;20470;-84
2021/08/28 11:16:44;;;;;;;6.15;5.85;;;25.00;46.30;;;;;;5053432;28;20044;-84
2021/08/28 11:19:10;;;;;;;6.20;5.90;;;25.00;46.10;;;;;;5053843;28;20478;-85
2021/08/28 11:21:49;;;;;;;6.30;6.00;;;24.90;46.20;;;;;;5051616;28;20037;-84
2021/08/28 11:24:16;;;;;;;6.60;6.20;;;24.90;46.30;;;;;;5067493;28;20055;-86
2021/08/28 11:26:42;;;;;;;6.07;5.78;;;24.90;46.00;;;;;;5055459;28;20413;-83
2021/08/28 11:29:31;;;;;;;6.50;6.20;;;25.10;45.90;;;;;;5051921;28;20017;-84
2021/08/28 11:32:33;;;;;;;6.45;6.15;;;25.20;45.60;;;;;;5054487;28;20045;-84
2021/08/28 11:34:59;;;;;;;6.05;5.75;;;25.00;45.60;;;;;;4992838;28;20042;-84
2021/08/28 11:37:28;;;;;;;6.25;5.95;;;25.00;45.70;;;;;;5007861;28;20030;-83
2021/08/28 11:39:59;;;;;;;5.43;5.22;;;24.90;45.80;;;;;;5014465;28;20038;-82
2021/08/28 11:42:25;;;;;;;5.95;5.65;;;24.90;45.90;;;;;;5016477;28;20045;-85
2021/08/28 11:44:52;;;;;;;5.28;4.97;;;24.80;45.80;;;;;;4985712;28;20034;-84
2021/08/28 11:47:19;;;;;;;4.88;4.68;;;24.60;45.90;;;;;;5000863;28;20045;-85
2021/08/28 11:49:45;;;;;;;5.18;4.97;;;24.40;46.10;;;;;;5001641;28;20049;-84
2021/08/28 11:52:11;;;;;;;5.05;4.85;;;24.50;46.20;;;;;;5000639;28;20048;-84
2021/08/28 11:54:38;;;;;;;6.22;5.93;;;24.50;46.20;;;;;;5014503;28;20430;-83
2021/08/28 11:57:04;;;;;;;4.68;4.47;;;24.40;46.10;;;;;;5035189;28;20042;-83
2021/08/28 11:59:34;;;;;;;5.18;4.93;;;24.40;46.10;;;;;;5017941;28;20030;-83
2021/08/28 12:02:00;;;;;;;5.00;4.80;;;24.20;46.30;;;;;;5017240;28;20033;-83
2021/08/28 12:04:26;;;;;;;4.90;4.70;;;24.00;46.50;;;;;;5001165;28;20506;-84
2021/08/28 12:06:53;;;;;;;4.85;4.63;;;23.90;46.70;;;;;;5014372;28;20045;-84
2021/08/28 12:09:23;;;;;;;5.28;5.07;;;23.80;46.80;;;;;;5033678;28;20033;-83
2021/08/28 12:11:49;;;;;;;4.93;4.72;;;23.80;46.90;;;;;;5059223;28;20044;-83
2021/08/28 12:14:16;;;;;;;5.68;5.38;;;23.90;46.90;;;;;;5058458;28;20037;-82
2021/08/28 12:16:43;;;;;;;5.80;4.90;;;24.00;46.70;;;;;;5056380;28;20100;-83
2021/08/28 12:19:10;;;;;;;4.80;4.60;;;24.00;46.60;;;;;;5038069;28;20025;-83
2021/08/28 12:21:46;;;;;;;5.38;5.18;;;24.00;46.60;;;;;;5055026;28;20033;-84
2021/08/28 12:24:26;;;;;;;4.90;4.70;;;24.10;46.30;;;;;;5070456;28;20500;-84
2021/08/28 12:26:53;;;;;;;4.70;4.50;;;24.30;46.00;;;;;;5059807;28;20053;-84
2021/08/28 12:29:27;;;;;;;5.45;5.15;;;24.40;45.70;;;;;;5058013;28;20470;-83
2021/08/28 12:32:09;;;;;;;5.70;5.40;;;24.60;45.60;;;;;;5039451;28;20052;-84
2021/08/28 12:34:42;;;;;;;5.22;5.03;;;24.70;45.10;;;;;;5057721;28;20040;-84
2021/08/28 12:37:18;;;;;;;6.95;6.65;;;24.80;44.90;;;;;;5039720;28;20025;-84
2021/08/28 12:39:52;;;;;;;6.65;6.35;;;25.00;44.60;;;;;;5035327;28;20056;-82
2021/08/28 12:42:20;;;;;;;7.60;7.28;;;25.10;44.50;;;;;;5082753;28;20020;-83
2021/08/28 12:44:47;;;;;;;6.85;6.55;;;25.30;44.40;;;;;;5057719;28;20041;-83
2021/08/28 12:47:13;;;;;;;7.53;7.03;;;25.40;44.10;;;;;;5038392;28;20033;-84